Time;durP1;ratioP1;P1;durP2;ratioP2;P2;SDS_P1;SDS_P2;PMS_P1;PMS_P2;Temp;Humidity;BMP_temperature;BMP_pressure;BME280_temperature;BME280_humidity;BME280_pressure;Samples;Min_cycle;Max_cycle;Signal;HPM_P1;HPM_P2
2022/05/12 00:00:24;;;;;;;8.82;3.72;;;12.40;99.90;;;;;;5006675;28;20061;-75
2022/05/12 00:02:50;;;;;;;17.25;3.30;;;12.40;99.90;;;;;;5010138;28;20050;-75
2022/05/12 00:05:16;;;;;;;7.70;2.72;;;12.40;99.90;;;;;;5022577;28;20558;-75
2022/05/12 00:07:43;;;;;;;6.10;2.30;;;12.30;99.90;;;;;;5029034;28;20100;-75
2022/05/12 00:10:10;;;;;;;7.50;2.45;;;12.20;99.90;;;;;;5028696;28;20045;-74
2022/05/12 00:12:38;;;;;;;8.75;2.95;;;12.20;99.90;;;;;;5029140;28;20057;-75
2022/05/12 00:15:06;;;;;;;6.45;2.47;;;12.10;99.90;;;;;;5029652;28;20095;-74
2022/05/12 00:17:32;;;;;;;9.93;2.58;;;12.10;99.90;;;;;;5028677;28;20111;-74
2022/05/12 00:19:58;;;;;;;4.50;2.28;;;12.00;99.90;;;;;;5029138;28;20049;-74
2022/05/12 00:22:24;;;;;;;8.57;2.30;;;12.00;99.90;;;;;;5030818;28;20081;-74
2022/05/12 00:24:49;;;;;;;7.03;2.13;;;12.00;99.90;;;;;;5028918;28;20041;-74
2022/05/12 00:27:15;;;;;;;5.55;2.38;;;11.90;99.90;;;;;;5027995;28;20050;-73
2022/05/12 00:29:41;;;;;;;8.38;2.55;;;11.90;99.90;;;;;;5029495;28;20100;-74
2022/05/12 00:32:07;;;;;;;4.35;2.25;;;11.90;99.90;;;;;;5028921;28;20494;-74
2022/05/12 00:34:32;;;;;;;7.30;2.42;;;11.80;99.90;;;;;;5029182;28;20065;-74
2022/05/12 00:36:59;;;;;;;7.80;2.25;;;11.80;99.90;;;;;;5028938;28;20136;-74
2022/05/12 00:39:25;;;;;;;4.28;1.75;;;11.80;99.90;;;;;;5025818;28;20129;-74
2022/05/12 00:41:50;;;;;;;3.83;2.03;;;11.70;99.90;;;;;;5027921;28;20099;-74
2022/05/12 00:44:16;;;;;;;8.23;2.42;;;11.70;99.90;;;;;;5027288;28;20045;-74
2022/05/12 00:46:44;;;;;;;5.05;2.15;;;11.60;99.90;;;;;;5029105;28;20073;-74
2022/05/12 00:49:32;;;;;;;4.60;1.80;;;11.60;99.90;;;;;;5028866;28;20053;-73
2022/05/12 00:52:11;;;;;;;5.85;2.38;;;11.50;99.90;;;;;;5014888;28;20344;-74
2022/05/12 00:54:52;;;;;;;9.20;2.65;;;11.50;99.90;;;;;;5027693;28;20147;-73
2022/05/12 00:57:49;;;;;;;4.68;2.20;;;11.50;99.90;;;;;;5012336;28;20819;-73
2022/05/12 01:00:16;;;;;;;9.55;1.90;;;11.40;99.90;;;;;;5007872;28;20101;-73
2022/05/12 01:02:45;;;;;;;9.73;2.60;;;11.40;99.90;;;;;;5010181;28;20053;-74
2022/05/12 01:05:12;;;;;;;5.68;1.90;;;11.40;99.90;;;;;;5027535;28;20045;-74
2022/05/12 01:07:38;;;;;;;6.03;3.25;;;11.30;99.90;;;;;;5027151;28;20037;-74
2022/05/12 01:10:06;;;;;;;8.77;2.58;;;11.30;99.90;;;;;;5026590;28;20616;-75
2022/05/12 01:12:33;;;;;;;8.00;2.97;;;11.20;99.90;;;;;;5024959;28;20665;-74
2022/05/12 01:14:58;;;;;;;8.02;2.75;;;11.20;99.90;;;;;;5026960;28;20041;-73
2022/05/12 01:17:24;;;;;;;10.05;2.45;;;11.20;99.90;;;;;;5026422;28;20380;-74
2022/05/12 01:19:51;;;;;;;4.78;2.10;;;11.20;99.90;;;;;;5027856;28;20056;-74
2022/05/12 01:22:38;;;;;;;9.63;3.38;;;11.10;99.90;;;;;;5027658;28;20491;-74
2022/05/12 01:25:17;;;;;;;6.32;2.55;;;11.10;99.90;;;;;;5027786;28;20049;-75
2022/05/12 01:27:43;;;;;;;7.07;2.75;;;11.10;99.90;;;;;;5028831;28;20171;-74
2022/05/12 01:30:12;;;;;;;6.50;2.50;;;11.00;99.90;;;;;;5027581;28;20069;-74
2022/05/12 01:32:38;;;;;;;8.00;3.05;;;11.00;99.90;;;;;;5027923;28;20044;-74
2022/05/12 01:35:06;;;;;;;3.30;2.40;;;10.90;99.90;;;;;;5048738;28;20060;-74
2022/05/12 01:37:32;;;;;;;2.60;2.40;;;10.90;99.90;;;;;;5031006;28;20048;-74
2022/05/12 01:39:57;;;;;;;6.40;2.45;;;10.90;99.90;;;;;;5031291;28;20044;-74
2022/05/12 01:42:24;;;;;;;8.73;2.97;;;10.90;99.90;;;;;;5050994;28;20405;-74
2022/05/12 01:44:50;;;;;;;14.85;2.72;;;10.80;99.90;;;;;;5050658;28;20055;-74
2022/05/12 01:47:16;;;;;;;11.77;2.85;;;10.80;99.90;;;;;;5068568;28;20033;-75
2022/05/12 01:49:42;;;;;;;7.05;2.65;;;10.80;99.90;;;;;;5042712;28;20111;-74
2022/05/12 01:52:10;;;;;;;4.10;3.03;;;10.80;99.90;;;;;;5011149;28;20045;-74
2022/05/12 01:54:35;;;;;;;8.02;3.22;;;10.70;99.90;;;;;;5011550;28;20121;-74
2022/05/12 01:57:01;;;;;;;5.18;3.30;;;10.70;99.90;;;;;;5047475;28;20554;-74
2022/05/12 01:59:27;;;;;;;3.70;2.10;;;10.70;99.90;;;;;;5030540;28;20053;-75
2022/05/12 02:01:52;;;;;;;9.60;3.53;;;10.60;99.90;;;;;;5048509;28;20501;-75
2022/05/12 02:04:18;;;;;;;18.27;3.67;;;10.60;99.90;;;;;;5030597;28;20053;-74
2022/05/12 02:06:44;;;;;;;5.97;3.03;;;10.60;99.90;;;;;;5029522;28;20456;-74
2022/05/12 02:09:11;;;;;;;8.65;2.97;;;10.60;99.90;;;;;;5030758;28;20051;-73
2022/05/12 02:11:37;;;;;;;6.00;2.35;;;10.60;99.90;;;;;;5030214;28;20673;-74
2022/05/12 02:14:04;;;;;;;10.15;3.42;;;10.60;99.90;;;;;;5030164;28;20045;-74
2022/05/12 02:16:31;;;;;;;4.53;2.70;;;10.50;99.90;;;;;;5030195;28;20056;-74
2022/05/12 02:18:56;;;;;;;11.27;3.45;;;10.50;99.90;;;;;;5029976;28;20040;-74
2022/05/12 02:21:22;;;;;;;5.38;2.83;;;10.50;99.90;;;;;;5030139;28;20456;-74
2022/05/12 02:23:48;;;;;;;6.53;3.50;;;10.50;99.90;;;;;;5030645;28;20049;-74
2022/05/12 02:26:14;;;;;;;13.90;4.00;;;10.50;99.90;;;;;;5029699;28;20041;-73
2022/05/12 02:28:40;;;;;;;6.20;3.45;;;10.40;99.90;;;;;;5028528;28;20131;-74
2022/05/12 02:31:06;;;;;;;10.52;4.38;;;10.40;99.90;;;;;;5030351;28;20124;-73
2022/05/12 02:33:32;;;;;;;6.95;4.00;;;10.30;99.90;;;;;;5047901;28;20136;-74
2022/05/12 02:35:57;;;;;;;6.55;3.30;;;10.30;99.90;;;;;;5029711;28;20144;-74
2022/05/12 02:38:23;;;;;;;6.82;2.85;;;10.30;99.90;;;;;;5030682;28;20068;-74
2022/05/12 02:40:49;;;;;;;5.75;2.92;;;10.30;99.90;;;;;;5036211;28;20047;-74
2022/05/12 02:43:24;;;;;;;11.93;3.30;;;10.30;99.90;;;;;;5047221;28;20044;-74
2022/05/12 02:45:59;;;;;;;3.58;2.65;;;10.30;99.90;;;;;;5024616;28;20045;-74
2022/05/12 02:48:28;;;;;;;6.82;3.78;;;10.20;99.90;;;;;;5029833;28;20048;-74
2022/05/12 02:50:55;;;;;;;6.18;3.00;;;10.20;99.90;;;;;;5029022;28;20044;-74
2022/05/12 02:53:21;;;;;;;7.55;3.30;;;10.20;99.90;;;;;;5028759;28;20506;-73
2022/05/12 02:55:47;;;;;;;9.65;3.75;;;10.10;99.90;;;;;;5047745;28;20088;-74
2022/05/12 02:58:13;;;;;;;6.13;3.67;;;10.10;99.90;;;;;;5029755;28;20437;-74
2022/05/12 03:00:39;;;;;;;4.60;3.47;;;10.10;99.90;;;;;;5030110;28;20056;-74
2022/05/12 03:03:07;;;;;;;5.20;3.67;;;10.00;99.90;;;;;;5029671;28;20041;-74
2022/05/12 03:05:36;;;;;;;6.85;3.90;;;10.00;99.90;;;;;;5029318;28;20141;-73
2022/05/12 03:08:02;;;;;;;8.90;3.75;;;10.00;99.90;;;;;;5029136;28;20041;-74
2022/05/12 03:10:28;;;;;;;5.30;4.20;;;9.90;99.90;;;;;;5047337;28;20060;-74
2022/05/12 03:12:54;;;;;;;11.13;4.30;;;9.90;99.90;;;;;;5048182;28;20055;-74
2022/05/12 03:15:26;;;;;;;5.28;4.22;;;9.90;99.90;;;;;;5033290;28;20049;-74
2022/05/12 03:17:52;;;;;;;4.72;3.80;;;9.80;99.90;;;;;;5031508;28;20049;-74
2022/05/12 03:20:22;;;;;;;7.70;4.03;;;9.80;99.90;;;;;;5029214;28;20079;-74
2022/05/12 03:22:48;;;;;;;8.77;4.22;;;9.80;99.90;;;;;;5029385;28;20076;-74
2022/05/12 03:25:15;;;;;;;13.60;4.90;;;9.80;99.90;;;;;;5046920;28;20106;-74
2022/05/12 03:27:42;;;;;;;9.57;4.20;;;9.80;99.90;;;;;;5029744;28;20052;-73
2022/05/12 03:30:12;;;;;;;8.15;4.13;;;9.80;99.90;;;;;;5029677;28;20052;-74
2022/05/12 03:32:37;;;;;;;10.35;4.05;;;9.80;99.90;;;;;;5028732;28;20110;-73
2022/05/12 03:35:04;;;;;;;5.70;4.30;;;9.80;99.90;;;;;;5029447;28;20144;-74
2022/05/12 03:37:30;;;;;;;8.73;4.70;;;9.80;99.90;;;;;;5029326;28;20060;-74
2022/05/12 03:39:56;;;;;;;11.43;5.20;;;9.70;99.90;;;;;;5023273;28;20056;-75
2022/05/12 03:42:21;;;;;;;8.40;5.18;;;9.70;99.90;;;;;;5070421;28;20040;-74
2022/05/12 03:44:47;;;;;;;15.73;5.30;;;9.70;99.90;;;;;;5053468;28;20552;-75
2022/05/12 03:47:20;;;;;;;8.77;4.25;;;9.70;99.90;;;;;;5042252;28;20133;-75
2022/05/12 03:49:48;;;;;;;13.30;5.25;;;9.70;99.90;;;;;;5050982;28;20067;-75
2022/05/12 03:52:13;;;;;;;11.20;5.00;;;9.70;99.90;;;;;;5032989;28;20091;-74
2022/05/12 03:54:40;;;;;;;15.57;5.55;;;9.70;99.90;;;;;;5050907;28;20053;-75
2022/05/12 03:57:06;;;;;;;9.30;5.32;;;9.70;99.90;;;;;;5033242;28;20049;-74
2022/05/12 03:59:33;;;;;;;15.00;5.40;;;9.70;99.90;;;;;;5033730;28;20045;-74
2022/05/12 04:01:59;;;;;;;12.70;5.03;;;9.70;99.90;;;;;;5031920;28;20510;-74
2022/05/12 04:04:25;;;;;;;9.80;4.53;;;9.80;99.90;;;;;;5033108;28;20095;-74
2022/05/12 04:06:50;;;;;;;15.05;5.03;;;9.90;99.90;;;;;;5033082;28;20053;-74
2022/05/12 04:09:17;;;;;;;10.32;5.97;;;9.90;99.90;;;;;;5032972;28;20120;-74
2022/05/12 04:11:43;;;;;;;12.80;4.78;;;10.00;99.90;;;;;;5043712;28;20056;-75
2022/05/12 04:14:09;;;;;;;12.55;5.32;;;10.10;99.90;;;;;;5033525;28;20041;-75
2022/05/12 04:16:36;;;;;;;10.20;5.05;;;10.20;99.90;;;;;;5031663;28;20041;-75
2022/05/12 04:19:06;;;;;;;11.23;5.25;;;10.40;99.90;;;;;;5032954;28;20049;-75
2022/05/12 04:21:34;;;;;;;13.75;5.03;;;10.50;99.90;;;;;;5050796;28;20056;-74
2022/05/12 04:24:01;;;;;;;11.07;4.80;;;10.60;99.90;;;;;;5032783;28;20486;-74
2022/05/12 04:26:27;;;;;;;9.13;4.45;;;10.80;99.90;;;;;;5027169;28;20449;-75
2022/05/12 04:28:53;;;;;;;5.22;4.38;;;10.80;99.90;;;;;;5032262;28;20044;-75
2022/05/12 04:31:19;;;;;;;6.13;4.28;;;10.70;99.90;;;;;;5032997;28;20124;-74
2022/05/12 04:36:29;;;;;;;10.15;4.38;;;10.60;99.90;;;;;;5032919;28;20049;-74
2022/05/12 04:38:54;;;;;;;10.27;4.85;;;10.50;99.90;;;;;;5032981;28;20413;-74
2022/05/12 04:41:21;;;;;;;12.07;5.50;;;10.40;99.90;;;;;;5036923;28;20080;-75
2022/05/12 04:43:46;;;;;;;8.07;5.47;;;10.40;99.90;;;;;;5032361;28;20088;-75
2022/05/12 04:46:12;;;;;;;7.30;5.15;;;10.40;99.90;;;;;;5031191;28;20084;-75
2022/05/12 04:48:38;;;;;;;11.80;5.47;;;10.40;99.90;;;;;;5032624;28;20928;-75
2022/05/12 04:51:04;;;;;;;13.80;6.82;;;10.40;99.90;;;;;;5030442;28;20041;-76
2022/05/12 04:53:30;;;;;;;25.58;6.60;;;10.30;99.90;;;;;;5031837;28;20053;-75
2022/05/12 04:55:56;;;;;;;21.60;6.53;;;10.40;99.90;;;;;;5032399;28;20110;-75
2022/05/12 04:58:22;;;;;;;14.57;6.45;;;10.40;99.90;;;;;;5032044;28;20087;-75
2022/05/12 05:00:48;;;;;;;13.50;5.90;;;10.40;99.90;;;;;;5031571;28;20060;-75
2022/05/12 05:03:15;;;;;;;14.02;6.40;;;10.50;99.90;;;;;;5031115;28;20045;-74
2022/05/12 05:05:40;;;;;;;17.70;6.15;;;10.50;99.90;;;;;;5019984;28;20110;-75
2022/05/12 05:08:07;;;;;;;12.15;7.00;;;10.60;99.90;;;;;;5026780;28;20053;-72
2022/05/12 05:10:34;;;;;;;12.07;6.78;;;10.60;99.90;;;;;;5039297;28;20071;-74
2022/05/12 05:13:00;;;;;;;12.95;7.65;;;10.70;99.90;;;;;;5039835;28;20072;-75
2022/05/12 05:15:26;;;;;;;18.75;7.50;;;10.70;99.90;;;;;;5031863;28;20049;-75
2022/05/12 05:17:52;;;;;;;11.77;6.72;;;10.80;99.90;;;;;;5031559;28;20558;-74
2022/05/12 05:20:25;;;;;;;14.02;7.30;;;10.80;99.90;;;;;;5030952;28;20107;-74
2022/05/12 05:22:51;;;;;;;25.42;7.43;;;10.80;99.90;;;;;;5032126;28;20044;-74
2022/05/12 05:25:17;;;;;;;20.85;8.07;;;10.90;99.90;;;;;;5018362;28;20127;-75
2022/05/12 05:27:44;;;;;;;18.65;8.38;;;10.90;99.90;;;;;;5049087;28;20132;-75
2022/05/12 05:30:14;;;;;;;14.38;7.97;;;11.00;99.90;;;;;;5032784;28;20064;-75
2022/05/12 05:32:39;;;;;;;12.50;7.43;;;11.00;99.90;;;;;;5031565;28;20103;-74
2022/05/12 05:35:06;;;;;;;16.90;7.97;;;11.00;99.90;;;;;;5030042;28;20076;-74
2022/05/12 05:37:32;;;;;;;13.88;8.57;;;11.10;99.90;;;;;;5014573;28;20074;-74
2022/05/12 05:39:57;;;;;;;17.00;8.18;;;11.20;99.90;;;;;;5014519;28;20387;-74
2022/05/12 05:42:23;;;;;;;23.85;8.38;;;11.20;99.90;;;;;;5039461;28;20170;-74
2022/05/12 05:44:49;;;;;;;20.83;9.00;;;11.20;99.90;;;;;;5030910;28;20166;-75
2022/05/12 05:47:16;;;;;;;24.27;9.32;;;11.30;99.90;;;;;;5030398;28;20128;-76
2022/05/12 05:49:42;;;;;;;16.25;8.18;;;11.30;99.90;;;;;;5029266;28;20080;-77
2022/05/12 05:54:54;;;;;;;16.80;9.98;;;11.40;99.90;;;;;;5030893;28;20044;-75
2022/05/12 05:57:24;;;;;;;14.65;9.40;;;11.50;99.90;;;;;;5030528;28;20452;-74
2022/05/12 05:59:52;;;;;;;19.98;10.02;;;11.50;99.90;;;;;;5031176;28;20049;-74
2022/05/12 06:02:18;;;;;;;17.75;10.68;;;11.60;99.90;;;;;;5022208;28;20803;-73
2022/05/12 06:04:43;;;;;;;17.98;10.35;;;11.60;99.90;;;;;;5024682;28;20080;-73
2022/05/12 06:07:09;;;;;;;15.85;11.45;;;11.70;99.90;;;;;;5025478;28;20128;-74
2022/05/12 06:09:35;;;;;;;17.90;11.45;;;11.80;99.90;;;;;;5030598;28;20040;-74
2022/05/12 06:12:00;;;;;;;24.05;11.30;;;11.90;99.90;;;;;;5031226;28;20080;-73
2022/05/12 06:14:26;;;;;;;21.85;12.15;;;12.00;99.90;;;;;;5047956;28;20524;-74
2022/05/12 06:16:52;;;;;;;22.38;12.13;;;12.10;99.90;;;;;;5030200;28;20060;-73
2022/05/12 06:19:18;;;;;;;25.10;14.48;;;12.20;99.90;;;;;;5029534;28;20045;-73
2022/05/12 06:21:44;;;;;;;22.08;13.20;;;12.30;99.90;;;;;;5029528;28;20076;-74
2022/05/12 06:24:09;;;;;;;25.60;14.60;;;12.40;99.90;;;;;;5047844;28;20119;-73
2022/05/12 06:26:35;;;;;;;25.30;14.75;;;12.40;99.90;;;;;;5030233;28;20512;-73
2022/05/12 06:29:01;;;;;;;28.63;16.80;;;12.40;99.90;;;;;;5029192;28;20565;-73
2022/05/12 06:31:30;;;;;;;22.00;16.63;;;12.50;99.90;;;;;;5030210;28;20052;-73
2022/05/12 06:33:57;;;;;;;20.30;15.38;;;12.50;99.90;;;;;;5028758;28;20065;-73
2022/05/12 06:36:23;;;;;;;23.48;15.38;;;12.50;99.90;;;;;;5028202;28;20566;-73
2022/05/12 06:38:49;;;;;;;16.63;14.27;;;12.50;99.90;;;;;;5045724;28;20044;-73
2022/05/12 06:41:16;;;;;;;21.15;15.73;;;12.70;99.90;;;;;;5028823;28;20565;-73
2022/05/12 06:43:45;;;;;;;22.35;15.02;;;12.90;99.90;;;;;;5027368;28;20609;-74
2022/05/12 06:46:12;;;;;;;19.98;13.85;;;13.10;99.90;;;;;;5025516;28;20056;-72
2022/05/12 06:48:37;;;;;;;36.90;15.10;;;13.30;99.90;;;;;;5027572;28;20086;-73
2022/05/12 06:51:03;;;;;;;29.08;12.05;;;13.60;99.90;;;;;;5023641;28;20081;-74
2022/05/12 06:53:30;;;;;;;18.77;11.57;;;13.80;99.90;;;;;;5028886;28;20448;-74
2022/05/12 06:55:55;;;;;;;21.00;12.00;;;14.00;99.90;;;;;;5047583;28;20053;-75
2022/05/12 06:58:21;;;;;;;19.17;10.88;;;14.30;99.90;;;;;;5029345;28;20053;-75
2022/05/12 07:00:47;;;;;;;21.23;11.00;;;14.50;99.90;;;;;;5029104;28;20052;-75
2022/05/12 07:03:13;;;;;;;14.25;10.80;;;14.80;99.90;;;;;;5028425;28;20045;-74
2022/05/12 07:05:41;;;;;;;13.77;9.52;;;15.00;99.90;;;;;;5030011;28;20127;-73
2022/05/12 07:08:07;;;;;;;17.25;9.77;;;15.30;99.90;;;;;;5015332;28;20132;-72
2022/05/12 07:10:33;;;;;;;17.02;9.38;;;15.40;99.90;;;;;;5016934;28;20033;-73
2022/05/12 07:12:59;;;;;;;11.68;8.13;;;15.70;99.90;;;;;;5023480;28;20387;-73
2022/05/12 07:15:27;;;;;;;12.82;9.07;;;16.00;99.90;;;;;;5026610;28;20458;-73
2022/05/12 07:17:55;;;;;;;13.25;7.53;;;16.20;99.90;;;;;;5032797;28;20057;-73
2022/05/12 07:28:38;;;;;;;21.20;7.88;;;16.80;99.90;;;;;;5033260;28;20056;-74
2022/05/12 07:31:05;;;;;;;13.52;7.53;;;17.10;99.90;;;;;;5048142;28;20056;-73
2022/05/12 07:33:34;;;;;;;18.25;5.75;;;17.40;99.90;;;;;;5032775;28;20061;-72
2022/05/12 07:36:04;;;;;;;15.43;6.07;;;17.50;99.90;;;;;;5031010;28;20124;-75
2022/05/12 07:38:30;;;;;;;11.55;5.80;;;17.60;99.90;;;;;;5032411;28;20798;-74
2022/05/12 07:40:55;;;;;;;16.55;6.47;;;17.70;99.90;;;;;;5031450;28;20056;-74
2022/05/12 07:43:23;;;;;;;10.18;5.20;;;17.90;99.90;;;;;;5030608;28;20713;-74
2022/05/12 07:45:49;;;;;;;12.63;6.45;;;18.00;99.90;;;;;;5034016;28;20502;-75
2022/05/12 07:48:15;;;;;;;15.82;6.20;;;18.20;99.90;;;;;;5032542;28;20103;-75
2022/05/12 07:50:41;;;;;;;8.45;3.88;;;18.50;99.90;;;;;;5050368;28;20087;-76
2022/05/12 07:53:07;;;;;;;7.05;4.50;;;18.70;99.90;;;;;;5032612;28;20533;-75
2022/05/12 07:55:34;;;;;;;14.30;4.78;;;18.80;99.90;;;;;;5051284;28;20099;-76
2022/05/12 07:58:07;;;;;;;12.02;4.35;;;18.90;99.90;;;;;;5053008;28;20052;-76
2022/05/12 08:00:34;;;;;;;5.50;3.35;;;19.10;99.90;;;;;;5036718;28;20056;-76
2022/05/12 08:03:00;;;;;;;7.97;4.43;;;19.20;99.90;;;;;;5033857;28;20049;-76
2022/05/12 08:05:26;;;;;;;13.32;4.97;;;19.30;99.90;;;;;;5031853;28;20056;-75
2022/05/12 08:07:52;;;;;;;9.15;4.25;;;19.40;99.90;;;;;;5031858;28;20048;-75
2022/05/12 08:10:19;;;;;;;10.75;4.18;;;19.50;99.90;;;;;;5032820;28;20052;-75
2022/05/12 08:12:45;;;;;;;9.00;3.63;;;19.70;99.90;;;;;;5030880;28;20654;-76
2022/05/12 08:15:12;;;;;;;8.60;3.60;;;19.70;99.90;;;;;;5032796;28;20060;-75
2022/05/12 08:17:37;;;;;;;10.50;3.47;;;19.80;99.90;;;;;;5031451;28;20498;-76
2022/05/12 08:20:08;;;;;;;9.85;4.35;;;19.80;99.90;;;;;;5031497;28;20053;-76
2022/05/12 08:22:34;;;;;;;5.32;3.60;;;20.00;99.90;;;;;;5031030;28;20098;-75
2022/05/12 08:25:00;;;;;;;8.60;3.75;;;19.90;99.90;;;;;;5031280;28;20083;-75
2022/05/12 08:27:27;;;;;;;7.03;4.07;;;20.00;99.90;;;;;;5030931;28;20842;-77
2022/05/12 08:29:53;;;;;;;9.82;3.38;;;19.80;99.90;;;;;;5032161;28;20045;-76
2022/05/12 08:32:19;;;;;;;8.25;3.42;;;19.90;99.90;;;;;;5047695;28;20049;-76
2022/05/12 08:34:45;;;;;;;10.70;3.15;;;19.70;93.60;;;;;;5030074;28;20127;-77
2022/05/12 08:37:12;;;;;;;9.18;3.20;;;19.70;95.10;;;;;;5048851;28;20072;-76
2022/05/12 08:39:38;;;;;;;15.85;3.53;;;19.60;94.00;;;;;;5031796;28;20049;-76
2022/05/12 08:42:15;;;;;;;6.28;3.55;;;19.50;93.70;;;;;;5060612;28;20848;-77
2022/05/12 08:44:40;;;;;;;7.30;3.28;;;19.50;88.50;;;;;;5030931;28;20048;-76
2022/05/12 08:47:13;;;;;;;12.70;3.50;;;19.50;90.50;;;;;;5046888;28;20778;-76
2022/05/12 08:49:45;;;;;;;6.38;2.33;;;19.50;84.90;;;;;;5031794;28;20045;-77
2022/05/12 08:52:36;;;;;;;9.02;3.00;;;19.60;78.30;;;;;;5029782;28;20049;-76
2022/05/12 08:55:26;;;;;;;9.43;3.63;;;19.40;72.60;;;;;;5030908;28;20055;-78
2022/05/12 08:57:58;;;;;;;6.93;2.60;;;19.30;79.00;;;;;;5026286;28;20065;-77
2022/05/12 09:00:25;;;;;;;9.05;3.30;;;19.40;87.80;;;;;;5025518;28;22589;-75
2022/05/12 09:02:57;;;;;;;13.13;4.85;;;19.30;89.20;;;;;;5024244;28;20052;-77
2022/05/12 09:05:30;;;;;;;7.00;3.50;;;19.30;92.10;;;;;;5031475;28;20390;-77
2022/05/12 09:08:23;;;;;;;10.20;3.88;;;19.30;87.00;;;;;;5012782;28;20056;-77
2022/05/12 09:11:04;;;;;;;13.43;3.40;;;19.40;79.70;;;;;;5022286;28;20052;-77
2022/05/12 09:13:51;;;;;;;8.85;3.22;;;19.50;76.30;;;;;;5029512;28;20807;-76
2022/05/12 09:16:30;;;;;;;9.48;3.75;;;19.90;81.30;;;;;;5015615;28;20061;-78
2022/05/12 09:18:57;;;;;;;12.05;4.32;;;20.20;79.90;;;;;;5015398;28;20055;-76
2022/05/12 09:21:23;;;;;;;11.95;3.53;;;20.30;78.00;;;;;;5030815;28;20196;-78
2022/05/12 09:23:49;;;;;;;8.07;4.00;;;20.40;75.80;;;;;;5047710;28;20139;-78
2022/05/12 09:26:41;;;;;;;4.35;2.80;;;20.50;74.40;;;;;;5029752;28;20044;-79
2022/05/12 09:29:29;;;;;;;9.75;3.63;;;20.80;75.90;;;;;;5030766;28;20055;-77
2022/05/12 09:32:24;;;;;;;5.82;2.88;;;20.70;72.20;;;;;;5029961;28;20052;-77
2022/05/12 09:35:25;;;;;;;4.90;3.78;;;20.50;69.90;;;;;;5047891;28;20045;-77
2022/05/12 09:37:52;;;;;;;7.25;3.47;;;20.30;68.80;;;;;;5031091;28;20053;-77
2022/05/12 09:40:39;;;;;;;8.32;3.55;;;20.10;72.30;;;;;;5049517;28;20064;-78
2022/05/12 09:43:31;;;;;;;5.68;3.60;;;20.20;69.80;;;;;;5040343;28;20053;-78
2022/05/12 09:46:05;;;;;;;7.22;3.00;;;20.40;70.10;;;;;;5026065;28;20049;-78
2022/05/12 09:48:37;;;;;;;10.13;4.38;;;20.40;65.90;;;;;;5030242;28;20053;-74
2022/05/12 09:51:11;;;;;;;9.35;3.33;;;20.10;66.50;;;;;;5037668;28;20052;-79
2022/05/12 09:53:38;;;;;;;6.82;3.30;;;20.10;64.90;;;;;;5017815;28;20083;-78
2022/05/12 09:56:07;;;;;;;5.90;3.65;;;20.00;65.50;;;;;;5027236;28;20045;-78
2022/05/12 09:58:39;;;;;;;6.03;3.42;;;20.20;66.10;;;;;;5036786;28;20869;-77
2022/05/12 10:01:11;;;;;;;12.05;4.32;;;20.30;63.50;;;;;;5030756;28;20045;-78
2022/05/12 10:09:21;;;;;;;7.88;3.65;;;20.60;60.20;;;;;;5030768;28;19929;-78
2022/05/12 10:12:06;;;;;;;6.15;3.08;;;20.90;63.70;;;;;;5041710;28;20402;-79
2022/05/12 10:14:49;;;;;;;6.72;3.70;;;21.00;62.60;;;;;;5031907;28;20057;-78
2022/05/12 10:17:45;;;;;;;5.75;3.17;;;21.00;59.00;;;;;;5032592;28;20060;-77
2022/05/12 10:20:28;;;;;;;4.47;2.97;;;20.90;58.90;;;;;;5042741;28;20045;-78
2022/05/12 10:23:21;;;;;;;12.10;2.85;;;21.00;58.70;;;;;;5029800;28;20295;-78
2022/05/12 10:26:00;;;;;;;6.78;3.10;;;21.20;57.50;;;;;;5042065;28;20041;-78
2022/05/12 10:29:08;;;;;;;8.75;3.17;;;21.20;58.50;;;;;;5031861;28;20127;-77
2022/05/12 10:31:36;;;;;;;6.38;3.50;;;21.30;57.50;;;;;;5033929;28;20056;-77
2022/05/12 10:34:27;;;;;;;9.65;3.55;;;21.20;59.40;;;;;;5045458;28;20433;-76
2022/05/12 10:37:30;;;;;;;6.72;2.63;;;21.20;59.40;;;;;;5044301;28;20049;-76
2022/05/12 10:40:32;;;;;;;7.97;3.47;;;21.20;59.60;;;;;;5043183;28;20098;-76
2022/05/12 10:43:19;;;;;;;19.95;3.78;;;21.20;56.80;;;;;;5046888;28;20100;-75
2022/05/12 10:46:11;;;;;;;10.90;3.42;;;21.10;59.60;;;;;;5026097;28;20395;-75
2022/05/12 10:48:55;;;;;;;7.88;3.20;;;21.00;57.70;;;;;;5043395;28;20052;-77
2022/05/12 10:51:50;;;;;;;7.90;3.15;;;20.70;58.70;;;;;;5028114;28;20047;-74
2022/05/12 10:54:24;;;;;;;9.52;2.72;;;20.70;58.60;;;;;;5045022;28;20115;-74
2022/05/12 10:57:16;;;;;;;4.28;3.20;;;20.40;60.10;;;;;;5042544;28;20116;-74
2022/05/12 10:59:52;;;;;;;10.35;3.38;;;20.30;59.70;;;;;;5027647;28;20144;-73
2022/05/12 11:02:40;;;;;;;8.25;2.65;;;20.30;58.60;;;;;;5046025;28;20461;-71
2022/05/12 11:05:10;;;;;;;;;;;20.60;58.40;;;;;;5042196;28;20151;-73
2022/05/12 11:07:42;;;;;;;6.03;2.72;;;20.70;54.10;;;;;;5047917;28;19925;-72
2022/05/12 11:10:28;;;;;;;8.90;3.20;;;20.80;57.60;;;;;;5030202;28;20501;-72
2022/05/12 11:13:03;;;;;;;8.23;3.08;;;20.50;54.80;;;;;;5045813;28;20135;-72
2022/05/12 11:15:51;;;;;;;6.35;2.58;;;20.30;56.20;;;;;;5048991;28;20045;-73
2022/05/12 11:18:27;;;;;;;6.50;3.30;;;20.10;56.50;;;;;;5041776;28;20127;-72
2022/05/12 11:21:23;;;;;;;6.20;2.87;;;20.10;57.00;;;;;;5046281;28;20049;-72
2022/05/12 11:24:00;;;;;;;13.32;2.90;;;20.40;58.70;;;;;;5042143;28;20307;-73
2022/05/12 11:26:51;;;;;;;8.77;2.95;;;20.70;58.40;;;;;;5047556;28;20510;-73
2022/05/12 11:29:44;;;;;;;4.15;2.75;;;20.70;56.80;;;;;;5023676;28;20205;-73
2022/05/12 11:32:15;;;;;;;8.65;3.20;;;20.50;55.90;;;;;;5044828;28;20107;-72
2022/05/12 11:34:45;;;;;;;4.75;2.10;;;20.40;57.00;;;;;;5029483;28;20061;-72
2022/05/12 11:37:30;;;;;;;4.38;2.15;;;20.60;57.60;;;;;;5045672;28;20707;-72
2022/05/12 11:39:58;;;;;;;7.70;3.25;;;20.90;55.30;;;;;;5039722;28;20060;-73
2022/05/12 11:44:23;;;;;;;9.20;3.05;;;20.90;54.30;;;;;;5040260;28;20052;-73
2022/05/12 11:45:35;;;;;;;12.45;3.17;;;20.70;54.40;;;;;;5047034;28;20053;-72
2022/05/12 11:48:15;;;;;;;7.97;3.13;;;20.60;55.30;;;;;;5046385;28;20049;-72
2022/05/12 11:50:43;;;;;;;8.27;3.88;;;20.70;54.90;;;;;;5045385;28;20053;-72
2022/05/12 11:53:50;;;;;;;8.68;3.47;;;20.70;55.60;;;;;;5032566;28;20053;-70
2022/05/12 11:56:32;;;;;;;;;;;20.70;55.00;;;;;;5029334;28;20041;-71
2022/05/12 11:59:16;;;;;;;7.20;3.13;;;20.80;55.00;;;;;;5028620;28;19920;-73
2022/05/12 12:01:41;;;;;;;8.68;3.40;;;20.80;53.50;;;;;;5043563;28;20063;-73
2022/05/12 12:04:13;;;;;;;5.38;3.22;;;20.90;55.10;;;;;;5050128;28;20041;-74
2022/05/12 12:06:50;;;;;;;5.90;2.90;;;20.90;55.00;;;;;;5044952;28;20068;-74
2022/05/12 12:09:36;;;;;;;8.13;2.75;;;20.80;55.50;;;;;;5032663;28;20409;-75
2022/05/12 12:12:05;;;;;;;10.25;2.42;;;20.70;54.00;;;;;;5037344;28;20544;-74
2022/05/12 12:14:46;;;;;;;3.80;2.40;;;20.50;54.30;;;;;;5033467;28;20076;-74
2022/05/12 12:17:35;;;;;;;6.03;2.22;;;20.60;55.00;;;;;;5025373;28;20080;-71
2022/05/12 12:20:10;;;;;;;4.78;2.42;;;20.70;51.40;;;;;;5033703;28;20221;-71
2022/05/12 12:22:48;;;;;;;6.10;2.88;;;20.70;52.50;;;;;;5050863;28;20155;-71
2022/05/12 12:25:32;;;;;;;6.28;2.85;;;20.90;51.60;;;;;;5031196;28;20420;-71
2022/05/12 12:28:10;;;;;;;6.80;2.75;;;20.90;51.00;;;;;;5048122;28;20052;-71
2022/05/12 12:30:50;;;;;;;9.32;3.15;;;20.80;53.00;;;;;;5034235;28;20048;-72
2022/05/12 12:33:25;;;;;;;7.40;3.42;;;20.90;53.80;;;;;;5029646;28;20056;-71
2022/05/12 12:36:08;;;;;;;8.50;2.65;;;21.10;53.50;;;;;;5030112;28;20057;-72
2022/05/12 12:38:48;;;;;;;9.23;2.83;;;21.40;50.90;;;;;;5031736;28;20045;-71
2022/05/12 12:41:19;;;;;;;9.00;3.30;;;21.50;50.70;;;;;;5023047;28;20038;-71
2022/05/12 12:43:55;;;;;;;4.60;3.13;;;21.50;50.80;;;;;;5023497;28;20049;-71
2022/05/12 12:46:35;;;;;;;5.20;3.38;;;21.60;50.50;;;;;;5025565;28;20096;-71
2022/05/12 12:49:18;;;;;;;6.25;3.00;;;21.50;48.80;;;;;;5023616;28;20392;-71
2022/05/12 12:51:51;;;;;;;5.70;2.65;;;21.60;49.10;;;;;;5024058;28;20103;-71
2022/05/12 12:57:28;;;;;;;10.32;3.53;;;21.40;48.30;;;;;;5023569;28;20111;-70
2022/05/12 13:00:02;;;;;;;9.57;3.65;;;21.50;50.40;;;;;;5026284;28;20604;-70
2022/05/12 13:02:33;;;;;;;6.63;3.17;;;21.40;49.70;;;;;;5029554;28;20053;-69
2022/05/12 13:05:04;;;;;;;5.70;2.78;;;21.50;49.20;;;;;;5029426;28;20144;-72
2022/05/12 13:07:32;;;;;;;6.70;2.70;;;21.50;49.00;;;;;;5029472;28;20132;-72
2022/05/12 13:10:00;;;;;;;8.52;3.10;;;21.40;49.80;;;;;;5028097;28;20499;-71
2022/05/12 13:12:27;;;;;;;4.65;2.78;;;21.50;49.70;;;;;;5023966;28;20046;-71
2022/05/12 13:14:55;;;;;;;7.55;3.13;;;21.60;49.60;;;;;;5028645;28;20041;-70
2022/05/12 13:17:34;;;;;;;7.80;3.08;;;21.60;49.70;;;;;;5024910;28;20046;-71
2022/05/12 13:20:01;;;;;;;6.63;3.22;;;21.60;49.60;;;;;;5028132;28;20140;-70
2022/05/12 13:22:49;;;;;;;10.07;2.57;;;21.40;49.50;;;;;;5029738;28;20128;-70
2022/05/12 13:25:42;;;;;;;2.53;2.30;;;21.40;48.20;;;;;;5019987;28;20054;-70